Time;durP1;ratioP1;P1;durP2;ratioP2;P2;SDS_P1;SDS_P2;PMS_P1;PMS_P2;Temp;Humidity;BMP_temperature;BMP_pressure;BME280_temperature;BME280_humidity;BME280_pressure;Samples;Min_cycle;Max_cycle;Signal;HPM_P1;HPM_P2
2024/03/10 00:01:10;;;;;;;20.17;12.80;;;9.90;96.80;;;;;;805693;176;27000;-78
2024/03/10 00:03:36;;;;;;;19.23;12.70;;;9.80;96.10;;;;;;802717;176;26443;-78
2024/03/10 00:06:03;;;;;;;21.80;12.97;;;9.90;95.80;;;;;;809841;176;26447;-79
2024/03/10 00:08:30;;;;;;;25.37;13.07;;;9.90;96.10;;;;;;808885;176;26580;-81
2024/03/10 00:10:56;;;;;;;23.13;12.27;;;9.80;96.20;;;;;;807691;174;26529;-79
2024/03/10 00:13:23;;;;;;;21.20;12.87;;;9.90;96.00;;;;;;800710;176;26420;-79
2024/03/10 00:15:50;;;;;;;20.47;12.57;;;9.90;96.00;;;;;;803843;177;26426;-80
2024/03/10 00:18:17;;;;;;;19.57;12.63;;;9.90;96.20;;;;;;801662;176;26443;-78
2024/03/10 00:20:44;;;;;;;20.50;11.67;;;10.00;94.90;;;;;;811412;176;26424;-80
2024/03/10 00:23:11;;;;;;;18.80;12.00;;;10.10;94.90;;;;;;801106;176;26438;-79
2024/03/10 00:25:37;;;;;;;21.33;12.47;;;10.10;94.30;;;;;;807735;176;27024;-79
2024/03/10 00:28:04;;;;;;;20.43;12.03;;;10.20;93.90;;;;;;802839;175;26439;-80
2024/03/10 00:30:33;;;;;;;20.83;12.73;;;10.20;94.10;;;;;;807177;177;26427;-80
2024/03/10 00:32:58;;;;;;;19.70;12.13;;;10.20;95.10;;;;;;809338;176;26507;-79
2024/03/10 00:35:24;;;;;;;19.33;12.63;;;10.30;93.70;;;;;;808176;176;26419;-80
2024/03/10 00:37:51;;;;;;;20.60;12.53;;;10.30;93.90;;;;;;807288;176;26422;-80
2024/03/10 00:40:19;;;;;;;18.73;12.20;;;10.30;94.30;;;;;;807267;176;26449;-80
2024/03/10 00:42:47;;;;;;;20.47;12.10;;;10.30;93.50;;;;;;805294;176;26442;-79
2024/03/10 00:45:13;;;;;;;19.73;12.27;;;10.40;93.30;;;;;;802431;176;26707;-78
2024/03/10 00:47:40;;;;;;;19.73;12.50;;;10.50;93.90;;;;;;801335;176;26434;-79
2024/03/10 00:50:09;;;;;;;18.73;12.13;;;10.50;93.30;;;;;;801362;179;26442;-78
2024/03/10 00:52:40;;;;;;;18.40;12.10;;;10.40;92.90;;;;;;803530;176;26449;-79
2024/03/10 00:55:09;;;;;;;21.40;13.10;;;10.40;93.10;;;;;;804823;176;26433;-80
2024/03/10 00:57:35;;;;;;;19.63;12.73;;;10.40;93.30;;;;;;797184;176;27028;-79
2024/03/10 01:00:04;;;;;;;18.37;12.10;;;10.40;93.40;;;;;;804947;177;26620;-78
2024/03/10 01:02:30;;;;;;;18.57;12.17;;;10.40;92.50;;;;;;799485;177;26431;-78
2024/03/10 01:04:57;;;;;;;19.73;12.50;;;10.50;93.10;;;;;;802951;177;26459;-79
2024/03/10 01:07:23;;;;;;;21.67;12.40;;;10.50;92.70;;;;;;803612;176;26426;-81
2024/03/10 01:09:50;;;;;;;18.30;11.63;;;10.50;93.10;;;;;;806462;166;26608;-78
2024/03/10 01:12:16;;;;;;;18.17;11.47;;;10.50;93.30;;;;;;812372;176;26442;-79
2024/03/10 01:14:45;;;;;;;21.13;12.27;;;10.50;93.30;;;;;;809801;176;26963;-80
2024/03/10 01:17:13;;;;;;;20.17;11.90;;;10.50;93.50;;;;;;804888;176;26430;-79
2024/03/10 01:19:39;;;;;;;21.80;12.73;;;10.50;92.80;;;;;;802692;176;26457;-80
2024/03/10 01:22:06;;;;;;;21.30;12.33;;;10.50;93.10;;;;;;802711;177;26506;-78
2024/03/10 01:24:32;;;;;;;19.87;12.00;;;10.50;93.00;;;;;;800426;177;26455;-79
2024/03/10 01:26:59;;;;;;;18.63;11.73;;;10.50;93.10;;;;;;800028;177;26441;-79
2024/03/10 01:29:25;;;;;;;19.83;11.73;;;10.40;93.60;;;;;;803985;175;26426;-79
2024/03/10 01:31:52;;;;;;;18.60;12.00;;;10.40;93.10;;;;;;805608;177;26514;-78
2024/03/10 01:34:20;;;;;;;19.90;12.27;;;10.40;93.80;;;;;;809639;176;26425;-79
2024/03/10 01:36:47;;;;;;;20.50;12.10;;;10.40;93.40;;;;;;800553;177;26455;-80
2024/03/10 01:39:13;;;;;;;22.07;11.97;;;10.40;93.70;;;;;;811881;177;26429;-79
2024/03/10 01:41:40;;;;;;;18.53;12.23;;;10.40;93.70;;;;;;808022;176;26474;-80
2024/03/10 01:44:06;;;;;;;19.00;11.30;;;10.40;93.40;;;;;;806487;176;26426;-79
2024/03/10 01:46:36;;;;;;;17.67;11.13;;;10.40;93.70;;;;;;799145;177;27022;-80
2024/03/10 01:49:03;;;;;;;18.50;11.03;;;10.40;92.80;;;;;;798380;177;26452;-79
2024/03/10 01:51:26;;;;;;;16.80;11.23;;;10.40;93.20;;;;;;803345;177;26535;-79
2024/03/10 01:53:55;;;;;;;21.00;11.87;;;10.50;93.30;;;;;;807484;176;26457;-78
2024/03/10 01:56:19;;;;;;;20.40;11.47;;;10.50;92.80;;;;;;809446;176;26453;-79
2024/03/10 01:58:46;;;;;;;18.67;11.60;;;10.50;92.90;;;;;;801288;177;26445;-80
2024/03/10 02:01:13;;;;;;;20.63;11.87;;;10.50;93.10;;;;;;806396;175;26445;-79
2024/03/10 02:03:40;;;;;;;17.80;11.20;;;10.50;93.20;;;;;;802800;176;26984;-79
2024/03/10 02:06:09;;;;;;;22.83;13.90;;;10.50;92.70;;;;;;803947;176;26446;-80
2024/03/10 02:08:36;;;;;;;19.63;10.97;;;10.40;92.80;;;;;;802796;176;26987;-80
2024/03/10 02:11:03;;;;;;;17.93;11.27;;;10.50;92.70;;;;;;801180;176;26446;-78
2024/03/10 02:13:30;;;;;;;18.93;12.07;;;10.50;93.10;;;;;;802436;176;26430;-80
2024/03/10 02:15:59;;;;;;;20.87;11.17;;;10.40;93.00;;;;;;808238;176;26648;-79
2024/03/10 02:18:26;;;;;;;19.23;11.60;;;10.40;93.60;;;;;;813027;176;26441;-78
2024/03/10 02:20:54;;;;;;;18.43;11.03;;;10.40;93.20;;;;;;804055;176;26468;-79
2024/03/10 02:23:20;;;;;;;16.70;10.37;;;10.30;93.70;;;;;;806534;176;26433;-79
2024/03/10 02:25:48;;;;;;;19.53;11.13;;;10.40;93.40;;;;;;804819;177;26422;-79
2024/03/10 02:28:21;;;;;;;20.83;11.03;;;10.40;93.40;;;;;;805026;177;26443;-79
2024/03/10 02:30:43;;;;;;;18.50;11.20;;;10.40;93.50;;;;;;807705;176;26475;-80
2024/03/10 02:48:29;;;;;;;16.10;9.80;;;10.50;93.00;;;;;;804870;177;26459;-80
2024/03/10 02:50:56;;;;;;;14.30;9.77;;;10.50;93.10;;;;;;801287;177;26424;-79
2024/03/10 02:53:22;;;;;;;15.80;9.70;;;10.50;92.90;;;;;;805017;177;27048;-76
2024/03/10 02:55:49;;;;;;;13.30;9.10;;;10.50;93.40;;;;;;799836;177;26443;-79
2024/03/10 02:58:16;;;;;;;14.13;9.77;;;10.60;92.50;;;;;;801402;177;26446;-80
2024/03/10 03:00:43;;;;;;;15.43;9.40;;;10.50;92.30;;;;;;802502;176;26413;-79
2024/03/10 03:03:09;;;;;;;15.50;9.50;;;10.50;92.60;;;;;;806729;176;26440;-79
2024/03/10 03:05:39;;;;;;;14.83;9.43;;;10.50;93.60;;;;;;809865;173;26998;-80
2024/03/10 03:08:03;;;;;;;15.77;9.50;;;10.50;92.60;;;;;;809729;176;26422;-81
2024/03/10 03:10:30;;;;;;;14.90;8.80;;;10.60;92.30;;;;;;811231;175;26469;-80
2024/03/10 03:12:56;;;;;;;15.67;9.90;;;10.60;91.90;;;;;;805779;176;26991;-80
2024/03/10 03:15:23;;;;;;;15.80;8.77;;;10.60;93.10;;;;;;803622;175;26426;-80
2024/03/10 03:17:50;;;;;;;14.83;9.43;;;10.60;92.80;;;;;;805330;176;26434;-80
2024/03/10 03:20:16;;;;;;;16.27;9.20;;;10.60;92.80;;;;;;808853;176;26417;-79
2024/03/10 03:22:43;;;;;;;15.13;8.83;;;10.70;92.90;;;;;;801435;176;26465;-79
2024/03/10 03:25:11;;;;;;;15.60;9.67;;;10.70;92.90;;;;;;802739;176;26427;-81
2024/03/10 03:27:37;;;;;;;14.27;8.93;;;10.70;92.10;;;;;;800753;176;26431;-80
2024/03/10 03:30:06;;;;;;;12.57;8.53;;;10.70;92.00;;;;;;801154;176;26459;-79
2024/03/10 03:32:30;;;;;;;16.10;8.73;;;10.70;91.90;;;;;;806223;176;26444;-79
2024/03/10 03:34:57;;;;;;;12.63;8.90;;;10.70;92.00;;;;;;801129;176;26434;-79
2024/03/10 03:37:24;;;;;;;12.20;8.93;;;10.70;92.10;;;;;;805526;177;26413;-79
2024/03/10 03:39:50;;;;;;;11.77;8.10;;;10.80;92.20;;;;;;805003;176;26444;-79
2024/03/10 03:42:16;;;;;;;14.73;8.87;;;10.80;91.80;;;;;;807420;176;26509;-79
2024/03/10 03:44:45;;;;;;;16.43;8.03;;;10.80;92.90;;;;;;800776;177;26434;-79
2024/03/10 03:47:12;;;;;;;12.90;8.30;;;10.70;91.80;;;;;;806674;176;26424;-80
2024/03/10 03:49:39;;;;;;;11.63;7.97;;;10.70;92.50;;;;;;800300;176;26511;-80
2024/03/10 03:52:13;;;;;;;13.33;8.50;;;10.70;92.60;;;;;;807437;171;26468;-80
2024/03/10 03:54:41;;;;;;;14.23;8.03;;;10.80;92.30;;;;;;817138;173;26409;-81
2024/03/10 03:57:08;;;;;;;11.47;8.27;;;10.80;92.20;;;;;;820022;174;26425;-80
2024/03/10 03:59:35;;;;;;;11.63;8.20;;;10.80;92.80;;;;;;818065;173;26970;-82
2024/03/10 04:02:01;;;;;;;15.10;7.83;;;10.80;92.30;;;;;;831684;170;26528;-79
2024/03/10 04:04:28;;;;;;;11.63;7.57;;;10.80;92.60;;;;;;815269;175;26358;-79
2024/03/10 04:06:54;;;;;;;12.93;8.00;;;10.80;93.10;;;;;;812488;175;26410;-79
2024/03/10 04:09:21;;;;;;;12.17;8.23;;;10.70;92.30;;;;;;816078;176;26337;-79
2024/03/10 04:11:47;;;;;;;13.53;8.37;;;10.80;92.30;;;;;;815861;176;26417;-81
2024/03/10 04:14:14;;;;;;;11.53;7.87;;;10.80;92.10;;;;;;811671;176;26400;-81
2024/03/10 04:16:40;;;;;;;12.13;7.80;;;10.90;92.00;;;;;;815528;174;27055;-81
2024/03/10 04:19:08;;;;;;;14.43;9.03;;;10.90;91.60;;;;;;822731;173;26336;-81
2024/03/10 04:21:34;;;;;;;14.60;8.37;;;10.90;92.00;;;;;;823091;173;26501;-80
2024/03/10 04:24:00;;;;;;;12.07;8.27;;;10.80;91.60;;;;;;823616;173;26359;-82
2024/03/10 04:26:27;;;;;;;11.27;8.80;;;10.80;92.30;;;;;;823553;173;26418;-81
2024/03/10 04:28:54;;;;;;;15.73;8.73;;;10.80;91.90;;;;;;821764;173;26354;-81
2024/03/10 04:31:20;;;;;;;14.00;8.57;;;10.80;92.40;;;;;;825680;173;26335;-81
2024/03/10 04:33:46;;;;;;;13.17;8.40;;;10.80;92.10;;;;;;821154;173;26977;-81
2024/03/10 04:36:14;;;;;;;11.67;8.03;;;10.80;92.90;;;;;;820087;173;26419;-77
2024/03/10 04:38:40;;;;;;;11.40;7.80;;;10.80;92.30;;;;;;820677;173;26965;-81
2024/03/10 04:41:06;;;;;;;13.80;8.67;;;10.80;91.80;;;;;;821225;173;26927;-82
2024/03/10 04:43:33;;;;;;;13.77;8.67;;;10.70;92.10;;;;;;824965;173;26347;-79
2024/03/10 04:46:00;;;;;;;11.63;7.27;;;10.70;92.10;;;;;;821923;173;26349;-80
2024/03/10 04:48:27;;;;;;;13.23;8.43;;;10.70;92.80;;;;;;821239;173;28017;-80
2024/03/10 04:50:53;;;;;;;11.40;7.63;;;10.60;92.30;;;;;;824869;173;26477;-79
2024/03/10 04:53:20;;;;;;;12.83;9.00;;;10.60;92.70;;;;;;821973;173;26951;-82
2024/03/10 04:55:46;;;;;;;12.07;8.63;;;10.60;92.60;;;;;;822955;174;26367;-79
2024/03/10 04:58:15;;;;;;;13.87;8.40;;;10.60;93.20;;;;;;821005;174;26402;-80
2024/03/10 05:00:40;;;;;;;13.50;8.50;;;10.60;93.00;;;;;;822259;174;26340;-80
2024/03/10 05:03:06;;;;;;;14.53;8.83;;;10.60;92.30;;;;;;821596;174;26376;-80
2024/03/10 05:05:33;;;;;;;15.27;8.90;;;10.60;92.40;;;;;;822060;174;26345;-79
2024/03/10 05:08:00;;;;;;;12.70;8.93;;;10.60;92.30;;;;;;810535;174;27645;-78
2024/03/10 05:10:26;;;;;;;13.23;9.07;;;10.60;92.70;;;;;;822933;174;26370;-79
2024/03/10 05:12:53;;;;;;;13.23;8.47;;;10.60;92.70;;;;;;821082;174;26951;-77
2024/03/10 05:15:20;;;;;;;14.00;8.87;;;10.50;93.00;;;;;;821871;174;26540;-78
2024/03/10 05:17:46;;;;;;;14.60;9.40;;;10.50;93.00;;;;;;825727;174;26339;-80
2024/03/10 05:20:13;;;;;;;13.77;8.87;;;10.50;92.90;;;;;;823928;174;26398;-79
2024/03/10 05:22:40;;;;;;;12.70;8.43;;;10.50;93.60;;;;;;819414;172;26364;-79
2024/03/10 05:25:09;;;;;;;13.37;8.47;;;10.50;92.60;;;;;;826969;174;26335;-79
2024/03/10 05:27:37;;;;;;;14.60;9.07;;;10.40;93.50;;;;;;822715;174;26343;-78
2024/03/10 05:30:02;;;;;;;12.30;8.20;;;10.40;93.50;;;;;;829207;172;26352;-80
2024/03/10 05:32:28;;;;;;;14.37;9.07;;;10.40;93.50;;;;;;824695;172;26894;-81
2024/03/10 05:34:56;;;;;;;15.43;9.67;;;10.40;93.40;;;;;;822360;173;26428;-79
2024/03/10 05:37:22;;;;;;;15.80;9.27;;;10.30;94.00;;;;;;821418;172;26332;-80
2024/03/10 05:39:48;;;;;;;14.80;9.67;;;10.20;94.40;;;;;;822776;173;26346;-79
2024/03/10 05:42:15;;;;;;;12.80;8.60;;;10.20;94.50;;;;;;824086;173;26402;-79
2024/03/10 05:44:42;;;;;;;14.63;9.13;;;10.20;94.00;;;;;;825969;173;26335;-79
2024/03/10 05:47:11;;;;;;;12.50;8.90;;;10.10;94.40;;;;;;824402;173;26889;-80
2024/03/10 05:49:36;;;;;;;12.53;8.80;;;10.00;95.20;;;;;;818946;173;26397;-80
2024/03/10 05:52:02;;;;;;;15.40;9.37;;;9.90;95.80;;;;;;821818;173;26529;-82
2024/03/10 05:54:29;;;;;;;13.10;9.13;;;9.90;96.20;;;;;;824351;173;26380;-78
2024/03/10 05:56:56;;;;;;;13.03;9.27;;;9.90;96.40;;;;;;824567;173;26426;-76
2024/03/10 05:59:22;;;;;;;15.03;9.33;;;9.90;95.70;;;;;;821894;173;26397;-81
2024/03/10 06:01:49;;;;;;;16.30;9.23;;;9.90;95.60;;;;;;823520;173;26423;-81
2024/03/10 06:04:16;;;;;;;14.07;9.27;;;9.80;95.90;;;;;;822451;172;26328;-82
2024/03/10 06:06:42;;;;;;;13.23;9.50;;;9.70;96.40;;;;;;823974;174;26964;-81
2024/03/10 06:09:10;;;;;;;13.53;9.10;;;9.70;96.90;;;;;;822277;174;26474;-81
2024/03/10 06:11:36;;;;;;;14.03;9.60;;;9.60;96.80;;;;;;823330;173;26343;-83
2024/03/10 06:14:03;;;;;;;15.37;9.77;;;9.70;96.40;;;;;;823510;173;26335;-80
2024/03/10 06:16:29;;;;;;;13.80;9.10;;;9.70;97.00;;;;;;818796;174;26398;-80
2024/03/10 06:26:43;;;;;;;15.30;9.77;;;9.70;96.30;;;;;;821663;174;26341;-78
2024/03/10 06:29:09;;;;;;;16.00;9.03;;;9.60;97.30;;;;;;819767;173;27999;-82
2024/03/10 06:31:37;;;;;;;13.87;9.20;;;9.60;96.70;;;;;;822335;174;26332;-81
2024/03/10 06:34:03;;;;;;;15.03;9.70;;;9.60;96.80;;;;;;817831;173;26410;-80
2024/03/10 06:36:30;;;;;;;14.47;9.83;;;9.70;96.80;;;;;;819603;174;26413;-80
2024/03/10 06:38:57;;;;;;;15.10;9.67;;;9.70;97.30;;;;;;820327;174;26414;-78
2024/03/10 06:41:23;;;;;;;14.90;9.77;;;9.70;96.50;;;;;;820511;172;26401;-81
2024/03/10 06:43:52;;;;;;;17.33;10.73;;;9.70;96.80;;;;;;825564;173;26730;-82
2024/03/10 06:46:17;;;;;;;15.57;9.87;;;9.70;97.60;;;;;;826632;173;26493;-81
2024/03/10 06:48:43;;;;;;;16.57;9.93;;;9.80;97.50;;;;;;825068;173;26518;-81
2024/03/10 06:51:10;;;;;;;18.97;9.63;;;9.80;96.80;;;;;;822619;173;26360;-82
2024/03/10 06:53:37;;;;;;;16.90;9.43;;;9.80;96.40;;;;;;819926;173;26417;-78
2024/03/10 06:56:04;;;;;;;16.93;9.80;;;9.90;96.60;;;;;;822332;173;26472;-81
2024/03/10 06:58:30;;;;;;;15.63;9.53;;;9.90;97.40;;;;;;823532;173;26492;-81
2024/03/10 07:00:58;;;;;;;15.63;9.83;;;9.90;96.70;;;;;;823303;173;26356;-81
2024/03/10 07:03:24;;;;;;;13.87;10.10;;;10.00;96.80;;;;;;821775;173;26377;-81
2024/03/10 07:05:50;;;;;;;16.90;10.23;;;10.00;96.50;;;;;;824830;173;26438;-78
2024/03/10 07:08:17;;;;;;;15.70;10.00;;;10.00;95.90;;;;;;827026;173;26398;-81
2024/03/10 07:10:43;;;;;;;15.10;10.07;;;10.00;96.60;;;;;;827206;172;26387;-79
2024/03/10 07:13:11;;;;;;;15.13;9.37;;;10.10;96.60;;;;;;827245;173;26424;-78
2024/03/10 07:15:37;;;;;;;15.73;9.80;;;10.10;96.20;;;;;;815818;175;26574;-83
2024/03/10 07:18:06;;;;;;;16.13;10.40;;;10.20;95.10;;;;;;811733;176;26350;-81
2024/03/10 07:20:33;;;;;;;14.00;9.57;;;10.20;95.20;;;;;;809799;176;26995;-79
2024/03/10 07:22:59;;;;;;;16.17;10.33;;;10.30;95.40;;;;;;810513;176;26377;-79
2024/03/10 07:25:26;;;;;;;15.47;9.90;;;10.30;95.00;;;;;;813710;176;26953;-80
2024/03/10 07:27:53;;;;;;;13.73;9.87;;;10.40;94.90;;;;;;813716;176;26345;-81
2024/03/10 07:30:21;;;;;;;14.77;9.83;;;10.40;95.10;;;;;;817125;174;26423;-79
2024/03/10 07:32:46;;;;;;;15.83;9.90;;;10.50;95.20;;;;;;810567;176;26439;-80
2024/03/10 07:35:13;;;;;;;14.90;10.20;;;10.50;95.60;;;;;;814619;176;26337;-81
2024/03/10 07:37:40;;;;;;;20.17;10.50;;;10.60;95.20;;;;;;821314;174;26478;-80
2024/03/10 07:40:15;;;;;;;16.30;10.60;;;10.60;94.50;;;;;;823261;173;26355;-80
2024/03/10 07:42:34;;;;;;;17.13;10.73;;;10.70;95.30;;;;;;820164;174;26357;-78
2024/03/10 07:45:00;;;;;;;15.87;9.70;;;10.80;94.40;;;;;;827073;174;26355;-80
2024/03/10 07:47:27;;;;;;;14.47;9.73;;;10.80;94.70;;;;;;822422;173;26356;-79
2024/03/10 07:49:54;;;;;;;16.00;10.47;;;10.90;94.20;;;;;;820011;175;26341;-79
2024/03/10 07:52:22;;;;;;;16.13;10.37;;;10.90;94.20;;;;;;821972;173;26477;-79
2024/03/10 07:54:47;;;;;;;12.90;9.57;;;11.00;94.00;;;;;;827469;173;26389;-78
2024/03/10 07:57:14;;;;;;;15.77;10.57;;;11.10;93.80;;;;;;825831;173;26433;-78
2024/03/10 07:59:41;;;;;;;15.27;10.33;;;11.10;93.20;;;;;;830563;173;26427;-80
2024/03/10 08:02:08;;;;;;;16.23;10.57;;;11.20;93.10;;;;;;830210;171;26383;-79
2024/03/10 08:04:35;;;;;;;16.63;9.87;;;11.30;93.30;;;;;;829390;173;26466;-79
2024/03/10 08:07:02;;;;;;;15.67;10.10;;;11.30;92.60;;;;;;820688;175;26340;-80
2024/03/10 08:09:29;;;;;;;17.20;10.50;;;11.40;92.70;;;;;;830708;172;26561;-78
2024/03/10 08:11:58;;;;;;;14.57;9.90;;;11.40;92.20;;;;;;830163;172;26414;-79
2024/03/10 08:14:23;;;;;;;14.40;10.07;;;11.40;92.10;;;;;;829077;172;26404;-80
2024/03/10 08:16:50;;;;;;;18.37;11.20;;;11.40;92.60;;;;;;829621;172;26382;-79
2024/03/10 08:19:16;;;;;;;15.80;10.30;;;11.50;92.10;;;;;;829794;170;26416;-80
2024/03/10 08:21:43;;;;;;;14.70;10.10;;;11.60;92.10;;;;;;830157;172;26396;-81
2024/03/10 08:24:09;;;;;;;17.33;10.67;;;11.70;91.40;;;;;;830122;172;26411;-82
2024/03/10 08:26:36;;;;;;;16.83;9.57;;;11.70;91.20;;;;;;829871;172;26395;-79
2024/03/10 08:29:03;;;;;;;15.17;10.20;;;11.80;91.10;;;;;;829787;172;26396;-80
2024/03/10 08:31:30;;;;;;;14.53;10.17;;;12.00;90.90;;;;;;829404;172;26397;-79
2024/03/10 08:33:56;;;;;;;16.37;10.87;;;11.90;90.10;;;;;;828968;172;27017;-80
2024/03/10 08:36:23;;;;;;;15.27;10.43;;;11.90;90.60;;;;;;829724;172;26523;-80
2024/03/10 08:38:50;;;;;;;17.67;10.27;;;11.80;90.50;;;;;;829019;172;26393;-80
2024/03/10 08:41:16;;;;;;;15.83;10.57;;;11.80;90.70;;;;;;828728;170;26383;-81
2024/03/10 08:43:43;;;;;;;15.50;10.37;;;11.80;90.20;;;;;;828910;172;26399;-77
2024/03/10 08:46:11;;;;;;;14.83;11.10;;;11.90;90.60;;;;;;829161;171;26870;-80
2024/03/10 08:48:40;;;;;;;15.63;10.77;;;12.00;90.10;;;;;;829193;172;26409;-79
2024/03/10 08:51:06;;;;;;;15.23;11.17;;;12.10;90.30;;;;;;828631;173;26416;-81
2024/03/10 08:53:33;;;;;;;14.10;10.13;;;12.30;88.30;;;;;;827738;172;26442;-80
2024/03/10 08:56:00;;;;;;;14.13;10.67;;;12.50;87.30;;;;;;827605;172;26959;-81
2024/03/10 08:58:26;;;;;;;13.70;10.40;;;12.70;88.60;;;;;;827173;172;26399;-80
2024/03/10 09:00:53;;;;;;;15.20;10.23;;;13.00;86.00;;;;;;827547;172;26399;-80
2024/03/10 09:03:22;;;;;;;17.80;10.53;;;13.10;83.10;;;;;;828778;171;27015;-79
2024/03/10 09:05:46;;;;;;;14.90;10.60;;;13.20;85.20;;;;;;829772;170;26585;-78
2024/03/10 09:08:13;;;;;;;15.23;10.37;;;13.40;80.10;;;;;;829905;173;26660;-81
2024/03/10 09:10:40;;;;;;;15.03;10.43;;;13.40;80.20;;;;;;828977;170;26432;-81
2024/03/10 09:13:07;;;;;;;13.30;10.13;;;13.40;79.30;;;;;;828678;172;26402;-79
2024/03/10 09:15:33;;;;;;;14.83;10.53;;;13.30;79.70;;;;;;828282;172;26752;-78
2024/03/10 09:18:00;;;;;;;15.17;10.60;;;13.30;79.30;;;;;;826734;172;26415;-78
2024/03/10 09:20:27;;;;;;;15.30;10.73;;;13.30;79.60;;;;;;826691;171;26421;-79
2024/03/10 09:22:54;;;;;;;17.47;10.20;;;13.40;79.20;;;;;;827166;172;26411;-77
2024/03/10 09:25:21;;;;;;;14.37;10.27;;;13.50;83.30;;;;;;827408;172;26425;-79
2024/03/10 09:27:48;;;;;;;13.37;9.93;;;13.50;79.00;;;;;;826706;172;26418;-79
2024/03/10 09:30:17;;;;;;;14.63;10.63;;;13.70;79.30;;;;;;827139;173;28062;-79
2024/03/10 09:32:42;;;;;;;14.77;10.13;;;13.90;78.10;;;;;;829168;173;26431;-78
2024/03/10 09:35:09;;;;;;;15.23;10.63;;;14.20;76.40;;;;;;829349;170;26407;-78
2024/03/10 09:37:37;;;;;;;15.00;10.20;;;14.30;75.10;;;;;;827549;172;26621;-80
2024/03/10 09:40:05;;;;;;;13.37;9.70;;;14.50;73.00;;;;;;828489;172;26391;-76
2024/03/10 09:42:28;;;;;;;14.57;9.93;;;14.80;70.60;;;;;;828521;173;26961;-80
2024/03/10 09:44:55;;;;;;;13.87;10.07;;;14.70;71.50;;;;;;829712;170;26566;-80
2024/03/10 09:47:22;;;;;;;15.30;10.67;;;14.80;69.00;;;;;;827392;170;26406;-79
2024/03/10 09:49:48;;;;;;;13.57;9.73;;;14.80;68.30;;;;;;826992;171;26437;-79
2024/03/10 09:52:15;;;;;;;12.87;9.67;;;14.90;67.80;;;;;;827060;172;26440;-79
2024/03/10 09:54:42;;;;;;;14.50;9.70;;;14.90;70.40;;;;;;826742;173;26428;-81
2024/03/10 09:57:08;;;;;;;13.53;9.73;;;15.10;68.60;;;;;;820565;172;26487;-77
2024/03/10 09:59:36;;;;;;;13.83;10.27;;;15.30;63.20;;;;;;801201;176;26487;-79
2024/03/10 10:02:04;;;;;;;13.00;9.70;;;15.20;61.10;;;;;;784406;182;26492;-79
2024/03/10 10:04:33;;;;;;;13.90;9.30;;;15.40;59.20;;;;;;800152;180;26425;-80
2024/03/10 10:06:58;;;;;;;13.47;9.73;;;15.50;59.50;;;;;;784927;183;26496;-80
2024/03/10 10:09:26;;;;;;;13.70;10.13;;;15.30;61.10;;;;;;799870;180;26450;-80
2024/03/10 10:11:51;;;;;;;13.30;9.77;;;15.40;59.80;;;;;;799970;179;26433;-79
2024/03/10 10:14:23;;;;;;;13.90;10.00;;;15.50;58.60;;;;;;796490;178;26513;-81
2024/03/10 10:16:50;;;;;;;16.20;10.63;;;15.20;58.20;;;;;;799712;179;26455;-80
2024/03/10 10:19:17;;;;;;;14.63;10.27;;;15.10;58.60;;;;;;796199;180;26471;-79
2024/03/10 10:21:44;;;;;;;14.80;10.57;;;15.00;59.10;;;;;;783090;183;27009;-79
2024/03/10 10:24:11;;;;;;;14.27;10.00;;;15.00;59.00;;;;;;771055;183;26465;-80
2024/03/10 10:26:37;;;;;;;13.63;10.00;;;15.10;59.50;;;;;;788715;182;26511;-79
2024/03/10 10:29:07;;;;;;;13.50;10.10;;;15.30;60.50;;;;;;792258;180;27073;-80
2024/03/10 10:31:33;;;;;;;14.33;10.37;;;15.50;59.10;;;;;;796786;180;26471;-79
2024/03/10 10:34:00;;;;;;;14.23;9.47;;;15.60;56.10;;;;;;800864;179;26420;-79
2024/03/10 10:36:26;;;;;;;14.27;10.00;;;15.70;57.10;;;;;;800872;179;26415;-78
2024/03/10 10:38:53;;;;;;;12.83;9.50;;;15.50;55.70;;;;;;797974;180;26466;-78
2024/03/10 10:41:21;;;;;;;15.23;10.33;;;15.50;55.40;;;;;;793238;180;26994;-80
2024/03/10 10:43:46;;;;;;;16.97;10.23;;;15.60;56.50;;;;;;783699;182;26428;-79
2024/03/10 10:46:14;;;;;;;12.73;9.63;;;15.70;59.20;;;;;;797978;178;26480;-79
2024/03/10 10:48:40;;;;;;;14.33;10.33;;;16.10;55.50;;;;;;800636;179;26543;-78
2024/03/10 10:51:07;;;;;;;14.93;10.40;;;16.10;54.30;;;;;;784912;183;26493;-80
2024/03/10 10:53:34;;;;;;;14.47;10.27;;;16.40;54.10;;;;;;785262;181;26452;-80
2024/03/10 10:56:01;;;;;;;14.03;9.93;;;16.70;54.00;;;;;;787961;181;26974;-80
2024/03/10 10:58:27;;;;;;;14.97;10.63;;;16.80;53.00;;;;;;783192;180;26485;-80
2024/03/10 11:00:59;;;;;;;13.80;10.10;;;16.70;53.70;;;;;;795082;179;26453;-80
2024/03/10 11:03:25;;;;;;;15.10;11.00;;;16.90;51.80;;;;;;796663;180;26451;-80
2024/03/10 11:06:16;;;;;;;12.73;9.60;;;17.20;50.50;;;;;;798520;179;26499;-80
2024/03/10 11:08:46;;;;;;;13.87;10.57;;;17.30;50.20;;;;;;796705;180;26472;-81
2024/03/10 11:11:14;;;;;;;15.07;10.43;;;17.20;49.40;;;;;;798185;180;26752;-80
2024/03/10 11:13:38;;;;;;;15.93;10.77;;;17.10;50.50;;;;;;800686;179;26608;-80
2024/03/10 11:16:17;;;;;;;15.03;10.80;;;17.10;51.20;;;;;;800006;176;26480;-80
2024/03/10 11:18:44;;;;;;;12.87;10.43;;;17.00;50.20;;;;;;797840;180;26442;-79
2024/03/10 11:21:14;;;;;;;14.53;10.57;;;16.80;50.00;;;;;;797961;180;26416;-81
2024/03/10 11:23:42;;;;;;;14.50;10.57;;;17.00;50.10;;;;;;797940;180;26941;-79
2024/03/10 11:26:07;;;;;;;15.57;10.67;;;17.20;50.00;;;;;;795338;178;26939;-80
2024/03/10 11:28:46;;;;;;;13.60;10.50;;;17.30;50.50;;;;;;800169;179;26438;-80
2024/03/10 11:31:12;;;;;;;14.90;10.93;;;17.40;49.00;;;;;;799675;178;26411;-80
2024/03/10 11:33:40;;;;;;;15.67;10.90;;;17.30;49.00;;;;;;797905;177;26445;-79
2024/03/10 11:36:05;;;;;;;15.63;11.20;;;17.80;48.30;;;;;;793856;181;26461;-79
2024/03/10 11:38:32;;;;;;;15.30;10.57;;;18.50;49.30;;;;;;794600;180;26502;-80
2024/03/10 11:41:00;;;;;;;12.93;10.33;;;18.80;47.60;;;;;;801775;179;26431;-79
2024/03/10 11:43:27;;;;;;;15.73;11.37;;;19.10;45.20;;;;;;801157;177;26426;-79
2024/03/10 11:45:54;;;;;;;14.60;10.87;;;19.20;45.10;;;;;;782191;182;26537;-79
2024/03/10 11:48:20;;;;;;;14.67;11.07;;;18.70;44.30;;;;;;792500;181;26483;-79
2024/03/10 11:50:47;;;;;;;13.63;11.00;;;19.20;44.70;;;;;;789414;182;26457;-80
2024/03/10 11:53:15;;;;;;;15.23;11.60;;;19.60;45.30;;;;;;794098;179;26958;-80
2024/03/10 11:55:41;;;;;;;13.53;10.93;;;20.00;44.60;;;;;;783410;183;26543;-80
2024/03/10 11:58:09;;;;;;;13.83;10.97;;;20.10;43.70;;;;;;792936;177;26479;-79
2024/03/10 12:00:41;;;;;;;16.70;13.03;;;19.30;41.90;;;;;;794362;180;26516;-78
2024/03/10 12:03:10;;;;;;;15.07;10.57;;;18.50;44.90;;;;;;800338;179;27057;-78
2024/03/10 12:05:39;;;;;;;15.93;11.40;;;18.80;43.80;;;;;;789134;179;26439;-78
2024/03/10 12:08:05;;;;;;;11.40;9.60;;;19.20;45.30;;;;;;801658;179;26454;-79
2024/03/10 12:10:32;;;;;;;14.73;11.23;;;19.70;44.70;;;;;;801692;179;26487;-80
2024/03/10 12:12:58;;;;;;;13.73;10.57;;;20.80;43.70;;;;;;801776;177;26435;-80
2024/03/10 12:15:26;;;;;;;13.27;10.07;;;22.20;40.50;;;;;;800793;177;26434;-80
2024/03/10 12:17:52;;;;;;;14.90;11.20;;;22.10;38.50;;;;;;800447;180;26502;-80
2024/03/10 12:20:19;;;;;;;15.97;12.00;;;21.60;40.20;;;;;;799949;180;26416;-79
2024/03/10 12:22:46;;;;;;;16.40;11.10;;;21.00;39.90;;;;;;799836;180;26955;-79
2024/03/10 12:25:13;;;;;;;14.50;10.97;;;21.40;39.70;;;;;;798584;180;26447;-79
2024/03/10 12:27:40;;;;;;;15.50;10.83;;;22.00;39.00;;;;;;780865;183;26458;-80
2024/03/10 12:30:09;;;;;;;13.97;10.43;;;22.60;37.00;;;;;;795661;181;26451;-80
2024/03/10 12:32:35;;;;;;;13.40;10.13;;;22.80;36.40;;;;;;799998;180;26463;-80
2024/03/10 12:35:02;;;;;;;11.63;9.50;;;21.40;36.30;;;;;;797219;180;26465;-79
2024/03/10 12:37:29;;;;;;;12.00;9.90;;;20.80;37.30;;;;;;797135;178;26998;-79
2024/03/10 12:39:56;;;;;;;11.97;9.50;;;20.30;38.70;;;;;;796137;179;26619;-79
2024/03/10 12:42:22;;;;;;;11.37;9.10;;;20.00;38.50;;;;;;802043;179;26450;-79
2024/03/10 12:44:50;;;;;;;13.10;9.37;;;19.90;39.70;;;;;;799113;180;26426;-80
2024/03/10 12:47:16;;;;;;;12.87;10.00;;;19.90;39.30;;;;;;798073;177;26460;-79
2024/03/10 12:49:42;;;;;;;12.83;10.63;;;19.90;39.80;;;;;;794360;180;26443;-79
2024/03/10 12:52:09;;;;;;;14.00;9.47;;;20.20;41.30;;;;;;801439;176;26476;-80
2024/03/10 12:54:36;;;;;;;11.87;8.87;;;20.00;39.20;;;;;;798989;179;27106;-80